createdAt,value
2019-01-27T00:00:11.007Z,25.57
2019-01-27T00:01:11.009Z,25.57
2019-01-27T00:02:10.981Z,25.57
2019-01-27T00:03:10.696Z,25.52
2019-01-27T00:04:10.963Z,25.57
2019-01-27T00:05:10.931Z,25.50
2019-01-27T00:06:10.949Z,25.47
2019-01-27T00:07:10.659Z,25.50
2019-01-27T00:08:13.671Z,25.47
2019-01-27T00:09:10.916Z,25.53
2019-01-27T00:10:10.908Z,25.50
2019-01-27T00:11:10.899Z,25.53
2019-01-27T00:12:10.894Z,25.54
2019-01-27T00:13:10.883Z,25.53
2019-01-27T00:14:10.662Z,25.49
2019-01-27T00:15:10.879Z,25.56
2019-01-27T00:16:10.627Z,25.49
2019-01-27T00:17:10.889Z,25.46
2019-01-27T00:18:10.896Z,25.54
2019-01-27T00:19:10.586Z,25.50
2019-01-27T00:20:10.616Z,25.47
2019-01-27T00:21:10.614Z,25.49
2019-01-27T00:22:10.598Z,25.44
2019-01-27T00:23:10.591Z,25.47
2019-01-27T00:24:10.582Z,25.53
2019-01-27T00:25:10.805Z,25.52
2019-01-27T00:26:10.570Z,25.50
2019-01-27T00:27:10.569Z,25.57
2019-01-27T00:28:10.759Z,25.53
2019-01-27T00:29:10.754Z,25.56
2019-01-27T00:30:10.756Z,25.53
2019-01-27T00:31:10.533Z,25.46
2019-01-27T00:32:10.544Z,25.52
2019-01-27T00:33:10.905Z,25.50
2019-01-27T00:34:10.858Z,25.49
2019-01-27T00:35:10.475Z,25.54
2019-01-27T00:36:10.467Z,25.54
2019-01-27T00:37:10.455Z,25.49
2019-01-27T00:38:10.843Z,25.57
2019-01-27T00:39:10.835Z,25.53
2019-01-27T00:40:10.863Z,25.54
2019-01-27T00:41:10.458Z,25.57
2019-01-27T00:42:10.470Z,25.57
2019-01-27T00:43:10.684Z,25.54
2019-01-27T00:44:11.165Z,25.49
2019-01-27T00:45:10.409Z,25.57
2019-01-27T00:46:10.688Z,25.54
2019-01-27T00:47:10.687Z,25.50
2019-01-27T00:48:10.653Z,25.50
2019-01-27T00:49:10.677Z,25.50
2019-01-27T00:50:10.664Z,25.50
2019-01-27T00:51:10.648Z,25.52
2019-01-27T00:52:10.639Z,25.54
2019-01-27T00:53:10.390Z,25.49
2019-01-27T00:54:10.595Z,25.56
2019-01-27T00:55:10.609Z,25.54
2019-01-27T00:56:10.623Z,25.50
2019-01-27T00:57:10.319Z,25.56
2019-01-27T00:58:10.311Z,25.54
2019-01-27T00:59:10.343Z,25.49
2019-01-27T01:00:10.338Z,25.54
2019-01-27T01:01:10.561Z,25.56
2019-01-27T01:02:10.277Z,25.50
2019-01-27T01:03:10.318Z,25.53
2019-01-27T01:04:10.319Z,25.53
2019-01-27T01:05:10.561Z,25.57
2019-01-27T01:06:10.545Z,25.53
2019-01-27T01:07:10.484Z,25.52
2019-01-27T01:08:10.525Z,25.59
2019-01-27T01:09:10.241Z,25.57
2019-01-27T01:10:10.500Z,25.57
2019-01-27T01:11:10.522Z,25.57
2019-01-27T01:12:10.221Z,25.61
2019-01-27T01:13:10.494Z,25.59
2019-01-27T01:14:10.518Z,25.57
2019-01-27T01:15:10.499Z,25.61
2019-01-27T01:16:10.473Z,25.67
2019-01-27T01:17:10.179Z,25.61
2019-01-27T01:18:10.416Z,25.61
2019-01-27T01:19:10.414Z,25.64
2019-01-27T01:20:10.464Z,25.57
2019-01-27T01:21:10.396Z,25.68
2019-01-27T01:22:10.147Z,25.67
2019-01-27T01:23:10.410Z,25.71
2019-01-27T01:24:10.394Z,25.68
2019-01-27T01:25:10.368Z,25.68
2019-01-27T01:26:10.166Z,25.65
2019-01-27T01:27:10.398Z,25.65
2019-01-27T01:28:10.149Z,25.61
2019-01-27T01:29:10.355Z,25.65
2019-01-27T01:30:10.355Z,25.72
2019-01-27T01:31:10.131Z,25.67
2019-01-27T01:32:10.116Z,25.69
2019-01-27T01:33:10.113Z,25.68
2019-01-27T01:34:10.334Z,25.67
2019-01-27T01:35:10.309Z,25.75
2019-01-27T01:36:10.329Z,25.72
2019-01-27T01:37:10.351Z,25.71
2019-01-27T01:38:10.341Z,25.68
2019-01-27T01:39:10.328Z,25.71
2019-01-27T01:40:10.049Z,25.74
2019-01-27T01:41:10.289Z,25.72
2019-01-27T01:42:10.011Z,25.69
2019-01-27T01:43:10.006Z,25.69
2019-01-27T01:44:10.227Z,25.69
2019-01-27T01:45:09.993Z,25.68
2019-01-27T01:46:10.280Z,25.77
2019-01-27T01:47:10.015Z,25.75
2019-01-27T01:48:10.213Z,25.75
2019-01-27T01:49:10.242Z,25.77
2019-01-27T01:50:09.998Z,25.79
2019-01-27T01:51:10.214Z,25.77
2019-01-27T01:52:09.983Z,25.72
2019-01-27T01:53:10.209Z,25.82
2019-01-27T01:54:09.931Z,25.79
2019-01-27T01:55:10.224Z,25.77
2019-01-27T01:56:10.220Z,25.90
2019-01-27T01:57:10.202Z,25.77
2019-01-27T01:58:10.144Z,25.84
2019-01-27T01:59:09.901Z,25.86
2019-01-27T02:00:10.123Z,25.79
2019-01-27T02:01:10.157Z,25.86
2019-01-27T02:02:09.870Z,25.84
2019-01-27T02:03:10.106Z,25.87
2019-01-27T02:04:10.132Z,25.89
2019-01-27T02:05:09.849Z,25.94
2019-01-27T02:06:09.889Z,25.89
2019-01-27T02:07:09.836Z,25.89
2019-01-27T02:08:09.876Z,25.89
2019-01-27T02:09:09.858Z,25.91
2019-01-27T02:10:09.861Z,25.94
2019-01-27T02:11:09.805Z,25.93
2019-01-27T02:12:10.070Z,25.93
2019-01-27T02:13:09.837Z,25.94
2019-01-27T02:14:09.797Z,25.97
2019-01-27T02:15:10.057Z,25.91
2019-01-27T02:16:10.053Z,25.94
2019-01-27T02:17:09.811Z,25.94
2019-01-27T02:18:10.044Z,25.86
2019-01-27T02:19:10.021Z,25.93
2019-01-27T02:20:10.020Z,25.94
2019-01-27T02:21:09.750Z,25.91
2019-01-27T02:22:10.011Z,25.87
2019-01-27T02:23:10.004Z,25.89
2019-01-27T02:24:09.727Z,25.87
2019-01-27T02:25:09.751Z,25.89
2019-01-27T02:26:09.752Z,25.87
2019-01-27T02:27:09.966Z,25.89
2019-01-27T02:28:09.933Z,25.86
2019-01-27T02:29:09.959Z,25.89
2019-01-27T02:30:09.919Z,25.87
2019-01-27T02:31:09.681Z,25.87
2019-01-27T02:32:09.944Z,25.87
2019-01-27T02:33:09.891Z,25.82
2019-01-27T02:34:09.893Z,25.84
2019-01-27T02:35:09.920Z,25.82
2019-01-27T02:36:09.685Z,25.90
2019-01-27T02:37:09.910Z,25.83
2019-01-27T02:38:09.661Z,25.91
2019-01-27T02:39:09.629Z,25.83
2019-01-27T02:40:09.879Z,25.91
2019-01-27T02:41:09.912Z,25.87
2019-01-27T02:42:09.869Z,25.90
2019-01-27T02:43:09.891Z,25.87
2019-01-27T02:44:09.894Z,25.84
2019-01-27T02:45:09.572Z,25.86
2019-01-27T02:46:09.577Z,25.86
2019-01-27T02:47:09.591Z,25.89
2019-01-27T02:48:09.581Z,25.89
2019-01-27T02:49:09.797Z,25.90
2019-01-27T02:50:09.576Z,25.89
2019-01-27T02:51:09.580Z,25.94
2019-01-27T02:52:09.534Z,25.93
2019-01-27T02:53:09.772Z,25.91
2019-01-27T02:54:09.520Z,25.97
2019-01-27T02:55:09.782Z,25.97
2019-01-27T02:56:09.734Z,25.94
2019-01-27T02:57:09.766Z,25.93
2019-01-27T02:58:09.793Z,25.97
2019-01-27T02:59:09.476Z,25.91
2019-01-27T03:00:09.488Z,25.93
2019-01-27T03:01:09.501Z,25.98
2019-01-27T03:02:09.501Z,25.91
2019-01-27T03:03:09.457Z,25.94
2019-01-27T03:04:09.485Z,25.94
2019-01-27T03:05:09.487Z,25.87
2019-01-27T03:06:09.434Z,25.97
2019-01-27T03:07:09.728Z,25.98
2019-01-27T03:08:09.439Z,25.97
2019-01-27T03:09:09.413Z,25.93
2019-01-27T03:10:09.669Z,25.98
2019-01-27T03:11:09.642Z,25.93
2019-01-27T03:12:09.672Z,25.99
2019-01-27T03:13:09.624Z,26.01
2019-01-27T03:14:09.618Z,25.94
2019-01-27T03:15:09.618Z,26.06
2019-01-27T03:16:09.402Z,26.06
2019-01-27T03:17:09.662Z,26.06
2019-01-27T03:18:09.652Z,26.05
2019-01-27T03:19:09.648Z,26.04
2019-01-27T03:20:09.338Z,26.04
2019-01-27T03:21:09.342Z,26.02
2019-01-27T03:22:09.342Z,26.04
2019-01-27T03:23:09.325Z,26.06
2019-01-27T03:24:09.584Z,26.09
2019-01-27T03:25:09.606Z,26.04
2019-01-27T03:26:09.293Z,26.05
2019-01-27T03:27:09.297Z,26.06
2019-01-27T03:28:09.550Z,26.04
2019-01-27T03:29:09.312Z,26.01
2019-01-27T03:30:09.565Z,26.06
2019-01-27T03:31:09.324Z,26.09
2019-01-27T03:32:09.306Z,26.08
2019-01-27T03:33:09.679Z,26.06
2019-01-27T03:34:09.667Z,26.11
2019-01-27T03:35:09.618Z,26.04
2019-01-27T03:36:09.626Z,26.04
2019-01-27T03:37:09.227Z,26.08
2019-01-27T03:38:09.462Z,26.04
2019-01-27T03:39:09.271Z,26.05
2019-01-27T03:40:09.464Z,26.04
2019-01-27T03:41:09.231Z,26.04
2019-01-27T03:42:09.194Z,26.09
2019-01-27T03:43:09.193Z,26.11
2019-01-27T03:44:09.438Z,26.01
2019-01-27T03:45:09.200Z,26.05
2019-01-27T03:46:09.427Z,26.11
2019-01-27T03:47:09.160Z,26.09
2019-01-27T03:48:09.196Z,26.06
2019-01-27T03:49:09.146Z,26.04
2019-01-27T03:50:09.399Z,26.09
2019-01-27T03:51:09.138Z,26.09
2019-01-27T03:52:09.388Z,26.05
2019-01-27T03:53:09.375Z,26.04
2019-01-27T03:54:09.138Z,26.05
2019-01-27T03:55:09.405Z,26.02
2019-01-27T03:56:09.093Z,26.05
2019-01-27T03:57:09.357Z,26.05
2019-01-27T03:58:09.103Z,26.06
2019-01-27T03:59:09.114Z,26.04
2019-01-27T04:00:09.497Z,26.04
2019-01-27T04:01:09.448Z,26.08
2019-01-27T04:02:09.414Z,26.09
2019-01-27T04:03:09.040Z,26.08
2019-01-27T04:04:09.037Z,26.11
2019-01-27T04:05:09.074Z,26.04
2019-01-27T04:06:09.413Z,26.05
2019-01-27T04:07:09.016Z,26.04
2019-01-27T04:08:09.299Z,26.04
2019-01-27T04:09:09.012Z,26.08
2019-01-27T04:10:08.995Z,26.01
2019-01-27T04:11:08.993Z,26.11
2019-01-27T04:12:09.261Z,26.05
2019-01-27T04:13:08.992Z,26.09
2019-01-27T04:14:08.999Z,26.11
2019-01-27T04:15:09.245Z,26.12
2019-01-27T04:16:09.264Z,26.05
2019-01-27T04:17:09.213Z,26.01
2019-01-27T04:18:08.986Z,26.11
2019-01-27T04:19:08.944Z,26.17
2019-01-27T04:20:09.165Z,26.15
2019-01-27T04:21:08.917Z,26.15
2019-01-27T04:22:08.917Z,26.17
2019-01-27T04:23:09.213Z,26.15
2019-01-27T04:24:09.205Z,26.18
2019-01-27T04:25:09.139Z,26.12
2019-01-27T04:26:09.157Z,26.21
2019-01-27T04:27:09.164Z,26.21
2019-01-27T04:28:08.871Z,26.18
2019-01-27T04:29:09.145Z,26.21
2019-01-27T04:30:08.866Z,26.17
2019-01-27T04:31:08.847Z,26.24
2019-01-27T04:32:09.104Z,26.18
2019-01-27T04:33:08.885Z,26.20
2019-01-27T04:34:09.106Z,26.22
2019-01-27T04:35:09.122Z,26.21
2019-01-27T04:36:08.864Z,26.21
2019-01-27T04:37:09.085Z,26.17
2019-01-27T04:38:09.109Z,26.15
2019-01-27T04:39:08.847Z,26.21
2019-01-27T04:40:09.209Z,26.18
2019-01-27T04:41:09.152Z,26.17
2019-01-27T04:42:09.161Z,26.17
2019-01-27T04:43:08.800Z,26.21
2019-01-27T04:44:08.801Z,26.12
2019-01-27T04:45:09.148Z,26.20
2019-01-27T04:46:09.062Z,26.11
2019-01-27T04:47:09.043Z,26.11
2019-01-27T04:48:08.788Z,26.15
2019-01-27T04:49:08.968Z,26.11
2019-01-27T04:50:09.017Z,26.15
2019-01-27T04:51:08.986Z,26.09
2019-01-27T04:52:08.977Z,26.12
2019-01-27T04:53:09.092Z,26.18
2019-01-27T04:54:09.107Z,26.17
2019-01-27T04:55:09.071Z,26.15
2019-01-27T04:56:08.691Z,26.11
2019-01-27T04:57:08.669Z,26.15
2019-01-27T04:58:09.044Z,26.11
2019-01-27T04:59:09.074Z,26.18
2019-01-27T05:00:08.662Z,26.09
2019-01-27T05:01:08.926Z,26.21
2019-01-27T05:02:08.927Z,26.11
2019-01-27T05:03:08.883Z,26.09
2019-01-27T05:04:08.670Z,26.12
2019-01-27T05:05:08.893Z,26.17
2019-01-27T05:06:08.664Z,26.11
2019-01-27T05:07:08.614Z,26.17
2019-01-27T05:08:08.644Z,26.18
2019-01-27T05:09:08.589Z,26.17
2019-01-27T05:10:08.628Z,26.20
2019-01-27T05:11:08.844Z,26.18
2019-01-27T05:12:08.575Z,26.15
2019-01-27T05:13:08.573Z,26.17
2019-01-27T05:14:08.607Z,26.22
2019-01-27T05:15:08.823Z,26.17
2019-01-27T05:16:08.819Z,26.11
2019-01-27T05:17:08.572Z,26.18
2019-01-27T05:18:08.785Z,26.18
2019-01-27T05:19:08.792Z,26.17
2019-01-27T05:20:08.523Z,26.18
2019-01-27T05:21:08.817Z,26.17
2019-01-27T05:22:08.771Z,26.15
2019-01-27T05:23:08.738Z,26.17
2019-01-27T05:24:08.755Z,26.15
2019-01-27T05:25:08.864Z,26.11
2019-01-27T05:26:08.898Z,26.05
2019-01-27T05:27:08.853Z,26.09
2019-01-27T05:28:08.477Z,26.08
2019-01-27T05:29:08.881Z,26.04
2019-01-27T05:30:08.493Z,26.09
2019-01-27T05:31:08.818Z,26.06
2019-01-27T05:32:08.484Z,26.15
2019-01-27T05:33:08.703Z,26.04
2019-01-27T05:34:08.660Z,26.02
2019-01-27T05:35:08.690Z,26.08
2019-01-27T05:36:08.448Z,26.01
2019-01-27T05:37:08.825Z,26.05
2019-01-27T05:38:08.433Z,26.08
2019-01-27T05:39:08.434Z,26.04
2019-01-27T05:40:08.379Z,26.06
2019-01-27T05:41:08.409Z,26.04
2019-01-27T05:42:08.747Z,26.04
2019-01-27T05:43:08.372Z,25.97
2019-01-27T05:44:08.597Z,26.06
2019-01-27T05:45:08.621Z,25.97
2019-01-27T05:46:08.382Z,25.99
2019-01-27T05:47:08.644Z,25.99
2019-01-27T05:48:08.333Z,25.98
2019-01-27T05:49:08.606Z,25.98
2019-01-27T05:50:08.581Z,25.99
2019-01-27T05:51:08.311Z,25.87
2019-01-27T05:52:08.545Z,25.99
2019-01-27T05:53:08.557Z,25.94
2019-01-27T05:54:08.536Z,25.97
2019-01-27T05:55:08.306Z,25.94
2019-01-27T05:56:08.274Z,25.94
2019-01-27T05:57:08.559Z,25.94
2019-01-27T05:58:08.552Z,25.97
2019-01-27T05:59:08.511Z,25.98
2019-01-27T06:00:08.513Z,25.99
2019-01-27T06:01:08.238Z,25.91
2019-01-27T06:02:08.498Z,25.93
2019-01-27T06:03:08.218Z,25.99
2019-01-27T06:04:08.256Z,25.91
2019-01-27T06:05:08.504Z,25.98
2019-01-27T06:06:08.300Z,25.97
2019-01-27T06:07:08.467Z,25.98
2019-01-27T06:08:08.239Z,25.99
2019-01-27T06:09:08.484Z,25.98
2019-01-27T06:10:08.442Z,25.87
2019-01-27T06:11:08.420Z,25.94
2019-01-27T06:12:08.397Z,25.93
2019-01-27T06:13:08.203Z,25.90
2019-01-27T06:14:08.155Z,25.98
2019-01-27T06:15:08.187Z,25.89
2019-01-27T06:16:08.382Z,25.86
2019-01-27T06:17:08.385Z,25.86
2019-01-27T06:18:08.158Z,25.94
2019-01-27T06:19:08.350Z,25.86
2019-01-27T06:20:08.347Z,25.86
2019-01-27T06:21:08.400Z,25.86
2019-01-27T06:22:08.141Z,25.90
2019-01-27T06:23:08.103Z,25.84
2019-01-27T06:24:08.116Z,25.84
2019-01-27T06:25:08.336Z,25.84
2019-01-27T06:26:08.433Z,25.89
2019-01-27T06:27:08.471Z,25.87
2019-01-27T06:28:08.068Z,25.80
2019-01-27T06:29:08.062Z,25.91
2019-01-27T06:30:08.056Z,25.72
2019-01-27T06:31:08.445Z,25.86
2019-01-27T06:32:08.381Z,25.80
2019-01-27T06:33:08.028Z,25.74
2019-01-27T06:34:08.392Z,25.86
2019-01-27T06:35:08.246Z,25.74
2019-01-27T06:36:08.262Z,25.77
2019-01-27T06:37:07.996Z,25.82
2019-01-27T06:38:08.253Z,25.77
2019-01-27T06:39:07.989Z,25.71
2019-01-27T06:40:08.006Z,25.86
2019-01-27T06:41:08.225Z,25.84
2019-01-27T06:42:07.955Z,25.87
2019-01-27T06:43:08.248Z,25.86
2019-01-27T06:44:08.189Z,25.89
2019-01-27T06:45:08.177Z,25.84
2019-01-27T06:46:08.219Z,25.90
2019-01-27T06:47:07.955Z,25.87
2019-01-27T06:48:08.178Z,25.87
2019-01-27T06:49:07.910Z,25.83
2019-01-27T06:50:08.143Z,25.87
2019-01-27T06:51:07.933Z,25.90
2019-01-27T06:52:07.902Z,25.89
2019-01-27T06:53:08.178Z,25.91
2019-01-27T06:54:08.142Z,25.82
2019-01-27T06:55:07.869Z,25.89
2019-01-27T06:56:08.166Z,25.79
2019-01-27T06:57:07.844Z,25.83
2019-01-27T06:58:08.087Z,25.86
2019-01-27T06:59:08.076Z,25.79
2019-01-27T07:00:08.127Z,25.90
2019-01-27T07:01:07.851Z,25.77
2019-01-27T07:02:08.055Z,25.86
2019-01-27T07:03:08.046Z,25.86
2019-01-27T07:04:07.851Z,25.84
2019-01-27T07:05:08.072Z,25.77
2019-01-27T07:06:08.028Z,25.87
2019-01-27T07:07:07.815Z,25.75
2019-01-27T07:08:08.041Z,25.80
2019-01-27T07:09:07.775Z,25.77
2019-01-27T07:10:07.774Z,25.84
2019-01-27T07:11:07.766Z,25.83
2019-01-27T07:12:07.784Z,25.77
2019-01-27T07:13:07.795Z,25.75
2019-01-27T07:14:07.977Z,25.72
2019-01-27T07:15:07.985Z,25.82
2019-01-27T07:16:08.086Z,25.75
2019-01-27T07:17:08.105Z,25.80
2019-01-27T07:18:08.090Z,25.79
2019-01-27T07:19:08.091Z,25.74
2019-01-27T07:20:07.698Z,25.77
2019-01-27T07:21:07.731Z,25.75
2019-01-27T07:22:07.726Z,25.82
2019-01-27T07:23:08.051Z,25.80
2019-01-27T07:24:07.705Z,25.75
2019-01-27T07:25:07.668Z,25.74
2019-01-27T07:26:07.940Z,25.75
2019-01-27T07:27:07.686Z,25.82
2019-01-27T07:28:07.894Z,25.80
2019-01-27T07:29:07.919Z,25.82
2019-01-27T07:30:07.637Z,25.79
2019-01-27T07:31:07.859Z,25.83
2019-01-27T07:32:07.654Z,25.77
2019-01-27T07:33:07.862Z,25.71
2019-01-27T07:34:07.883Z,25.77
2019-01-27T07:35:07.842Z,25.75
2019-01-27T07:36:07.837Z,25.75
2019-01-27T07:37:07.869Z,25.75
2019-01-27T07:38:07.562Z,25.77
2019-01-27T07:39:07.607Z,25.83
2019-01-27T07:40:07.556Z,25.79
2019-01-27T07:41:07.799Z,25.87
2019-01-27T07:42:07.803Z,25.77
2019-01-27T07:43:07.574Z,25.75
2019-01-27T07:44:07.530Z,25.77
2019-01-27T07:45:07.819Z,25.75
2019-01-27T07:46:07.557Z,25.79
2019-01-27T07:47:07.547Z,25.79
2019-01-27T07:48:07.777Z,25.79
2019-01-27T07:49:07.773Z,25.79
2019-01-27T07:50:07.744Z,25.75
2019-01-27T07:51:07.520Z,25.77
2019-01-27T07:52:07.776Z,25.72
2019-01-27T07:53:07.743Z,25.72
2019-01-27T07:54:07.704Z,25.75
2019-01-27T07:55:07.451Z,25.77
2019-01-27T07:56:07.444Z,25.75
2019-01-27T07:57:07.723Z,25.77
2019-01-27T07:58:07.674Z,25.75
2019-01-27T07:59:07.708Z,25.79
2019-01-27T08:00:07.428Z,25.75
2019-01-27T08:01:07.672Z,25.74
2019-01-27T08:02:07.682Z,25.77
2019-01-27T08:03:11.955Z,25.83
2019-01-27T08:04:07.673Z,25.79
2019-01-27T08:05:07.652Z,25.74
2019-01-27T08:06:07.622Z,25.77
2019-01-27T08:07:07.616Z,25.79
2019-01-27T08:08:07.621Z,25.79
2019-01-27T08:09:07.623Z,25.75
2019-01-27T08:10:07.352Z,25.77
2019-01-27T08:11:07.376Z,25.77
2019-01-27T08:12:07.646Z,25.79
2019-01-27T08:13:07.582Z,25.80
2019-01-27T08:14:07.631Z,25.74
2019-01-27T08:15:07.590Z,25.77
2019-01-27T08:16:07.581Z,25.79
2019-01-27T08:17:07.556Z,25.79
2019-01-27T08:18:07.334Z,25.75
2019-01-27T08:19:07.528Z,25.79
2019-01-27T08:20:07.578Z,25.82
2019-01-27T08:21:07.566Z,25.71
2019-01-27T08:22:07.277Z,25.83
2019-01-27T08:23:07.305Z,25.82
2019-01-27T08:24:07.523Z,25.79
2019-01-27T08:25:07.549Z,25.77
2019-01-27T08:26:07.240Z,25.77
2019-01-27T08:27:07.228Z,25.75
2019-01-27T08:28:07.260Z,25.75
2019-01-27T08:29:07.471Z,25.72
2019-01-27T08:30:07.588Z,25.79
2019-01-27T08:31:07.595Z,25.68
2019-01-27T08:32:07.552Z,25.64
2019-01-27T08:33:07.191Z,25.71
2019-01-27T08:34:07.596Z,25.72
2019-01-27T08:35:07.593Z,25.75
2019-01-27T08:36:07.526Z,25.72
2019-01-27T08:37:07.207Z,25.74
2019-01-27T08:38:07.576Z,25.75
2019-01-27T08:39:07.148Z,25.72
2019-01-27T08:40:07.408Z,25.74
2019-01-27T08:41:07.132Z,25.77
2019-01-27T08:42:07.132Z,25.71
2019-01-27T08:43:07.164Z,25.77
2019-01-27T08:44:07.387Z,25.75
2019-01-27T08:45:07.112Z,25.69
2019-01-27T08:46:07.102Z,25.77
2019-01-27T08:47:07.371Z,25.69
2019-01-27T08:48:07.365Z,25.67
2019-01-27T08:49:07.375Z,25.68
2019-01-27T08:50:07.087Z,25.71
2019-01-27T08:51:07.348Z,25.74
2019-01-27T08:52:07.066Z,25.75
2019-01-27T08:53:07.354Z,25.75
2019-01-27T08:54:07.087Z,25.74
2019-01-27T08:55:07.033Z,25.77
2019-01-27T08:56:07.042Z,25.72
2019-01-27T08:57:07.057Z,25.74
2019-01-27T08:58:07.020Z,25.68
2019-01-27T08:59:07.009Z,25.68
2019-01-27T09:00:07.271Z,25.65
2019-01-27T09:01:07.290Z,25.67
2019-01-27T09:02:07.239Z,25.67
2019-01-27T09:03:07.018Z,25.71
2019-01-27T09:04:07.277Z,25.69
2019-01-27T09:05:07.005Z,25.69
2019-01-27T09:06:07.005Z,25.77
2019-01-27T09:07:07.218Z,25.75
2019-01-27T09:08:07.217Z,25.79
2019-01-27T09:09:06.979Z,25.80
2019-01-27T09:10:07.178Z,25.74
2019-01-27T09:11:06.926Z,25.68
2019-01-27T09:12:07.195Z,25.75
2019-01-27T09:13:11.175Z,25.74
2019-01-27T09:14:06.906Z,25.80
2019-01-27T09:15:07.138Z,25.82
2019-01-27T09:16:06.903Z,25.77
2019-01-27T09:17:06.890Z,25.83
2019-01-27T09:18:06.891Z,25.77
2019-01-27T09:19:07.147Z,25.80
2019-01-27T09:20:06.879Z,25.80
2019-01-27T09:21:07.144Z,25.80
2019-01-27T09:22:07.160Z,25.83
2019-01-27T09:23:07.142Z,25.79
2019-01-27T09:24:06.845Z,25.75
2019-01-27T09:25:06.836Z,25.65
2019-01-27T09:26:07.072Z,25.79
2019-01-27T09:27:07.092Z,25.75
2019-01-27T09:28:07.114Z,25.82
2019-01-27T09:29:07.047Z,25.74
2019-01-27T09:30:07.035Z,25.82
2019-01-27T09:31:06.793Z,25.68
2019-01-27T09:32:06.784Z,25.69
2019-01-27T09:33:06.827Z,25.69
2019-01-27T09:34:12.974Z,25.69
2019-01-27T09:35:07.042Z,25.69
2019-01-27T09:36:07.035Z,25.69
2019-01-27T09:37:06.748Z,25.74
2019-01-27T09:38:07.053Z,25.69
2019-01-27T09:39:06.994Z,25.77
2019-01-27T09:40:06.775Z,25.67
2019-01-27T09:41:06.757Z,25.69
2019-01-27T09:42:06.729Z,25.67
2019-01-27T09:43:06.954Z,25.69
2019-01-27T09:44:06.961Z,25.72
2019-01-27T09:45:06.960Z,25.65
2019-01-27T09:46:11.228Z,25.65
2019-01-27T09:47:07.105Z,25.68
2019-01-27T09:48:06.717Z,25.69
2019-01-27T09:49:07.061Z,25.68
2019-01-27T09:50:07.064Z,25.69
2019-01-27T09:51:07.031Z,25.69
2019-01-27T09:52:07.031Z,25.67
2019-01-27T09:53:06.681Z,25.71
2019-01-27T09:54:06.677Z,25.69
2019-01-27T09:55:06.863Z,25.69
2019-01-27T09:56:06.914Z,25.75
2019-01-27T09:57:06.918Z,25.69
2019-01-27T09:58:06.618Z,25.65
2019-01-27T09:59:06.639Z,25.71
2019-01-27T10:00:06.603Z,25.79
2019-01-27T10:01:06.587Z,25.77
2019-01-27T10:02:06.826Z,25.75
2019-01-27T10:03:06.605Z,25.69
2019-01-27T10:04:06.566Z,25.77
2019-01-27T10:05:06.833Z,25.67
2019-01-27T10:06:06.584Z,25.75
2019-01-27T10:07:06.813Z,25.64
2019-01-27T10:08:06.536Z,25.68
2019-01-27T10:09:06.770Z,25.69
2019-01-27T10:10:06.909Z,25.64
2019-01-27T10:11:06.518Z,25.67
2019-01-27T10:12:06.880Z,25.65
2019-01-27T10:13:06.557Z,25.65
2019-01-27T10:14:06.505Z,25.67
2019-01-27T10:15:06.864Z,25.65
2019-01-27T10:16:06.519Z,25.64
2019-01-27T10:17:06.870Z,25.72
2019-01-27T10:18:06.471Z,25.64
2019-01-27T10:19:06.762Z,25.69
2019-01-27T10:20:06.719Z,25.68
2019-01-27T10:21:06.713Z,25.61
2019-01-27T10:22:06.738Z,25.64
2019-01-27T10:23:06.693Z,25.67
2019-01-27T10:24:06.696Z,25.69
2019-01-27T10:25:06.714Z,25.72
2019-01-27T10:26:06.409Z,25.64
2019-01-27T10:27:06.651Z,25.72
2019-01-27T10:28:06.659Z,25.61
2019-01-27T10:29:06.669Z,25.67
2019-01-27T10:30:06.376Z,25.69
2019-01-27T10:31:06.373Z,25.67
2019-01-27T10:32:06.642Z,25.65
2019-01-27T10:33:06.411Z,25.62
2019-01-27T10:34:06.613Z,25.67
2019-01-27T10:35:06.357Z,25.68
2019-01-27T10:36:06.395Z,25.72
2019-01-27T10:37:12.066Z,25.64
2019-01-27T10:38:06.326Z,25.65
2019-01-27T10:39:06.587Z,25.67
2019-01-27T10:40:09.299Z,25.64
2019-01-27T10:41:06.545Z,25.64
2019-01-27T10:42:06.566Z,25.69
2019-01-27T10:43:06.592Z,25.69
2019-01-27T10:44:06.316Z,25.71
2019-01-27T10:45:06.579Z,25.65
2019-01-27T10:46:06.527Z,25.65
2019-01-27T10:47:06.542Z,25.69
2019-01-27T10:48:06.490Z,25.68
2019-01-27T10:49:06.280Z,25.64
2019-01-27T10:50:06.250Z,25.71
2019-01-27T10:51:06.230Z,25.64
2019-01-27T10:52:06.222Z,25.69
2019-01-27T10:53:06.523Z,25.68
2019-01-27T10:54:06.514Z,25.64
2019-01-27T10:55:06.468Z,25.67
2019-01-27T10:56:06.503Z,25.67
2019-01-27T10:57:06.195Z,25.64
2019-01-27T10:58:06.203Z,25.67
2019-01-27T10:59:06.465Z,25.64
2019-01-27T11:00:06.468Z,25.72
2019-01-27T11:01:06.475Z,25.65
2019-01-27T11:02:06.399Z,25.67
2019-01-27T11:03:06.455Z,25.69
2019-01-27T11:04:06.413Z,25.69
2019-01-27T11:05:06.178Z,25.68
2019-01-27T11:06:06.148Z,25.71
2019-01-27T11:07:06.361Z,25.68
2019-01-27T11:08:06.475Z,25.67
2019-01-27T11:09:06.392Z,25.68
2019-01-27T11:10:06.399Z,25.67
2019-01-27T11:11:06.355Z,25.67
2019-01-27T11:12:06.368Z,25.65
2019-01-27T11:13:06.362Z,25.64
2019-01-27T11:14:06.346Z,25.69
2019-01-27T11:15:06.340Z,25.67
2019-01-27T11:16:06.094Z,25.64
2019-01-27T11:17:06.064Z,25.59
2019-01-27T11:18:06.315Z,25.64
2019-01-27T11:19:06.038Z,25.62
2019-01-27T11:20:06.298Z,25.68
2019-01-27T11:21:06.066Z,25.64
2019-01-27T11:22:06.359Z,25.62
2019-01-27T11:23:06.280Z,25.67
2019-01-27T11:24:06.284Z,25.65
2019-01-27T11:25:06.016Z,25.65
2019-01-27T11:26:05.989Z,25.65
2019-01-27T11:27:05.990Z,25.61
2019-01-27T11:28:06.281Z,25.59
2019-01-27T11:29:05.980Z,25.64
2019-01-27T11:30:06.264Z,25.67
2019-01-27T11:31:06.234Z,25.62
2019-01-27T11:32:05.990Z,25.62
2019-01-27T11:33:05.952Z,25.64
2019-01-27T11:34:06.214Z,25.61
2019-01-27T11:35:06.226Z,25.62
2019-01-27T11:36:05.924Z,25.59
2019-01-27T11:37:05.968Z,25.61
2019-01-27T11:38:06.206Z,25.62
2019-01-27T11:39:05.914Z,25.64
2019-01-27T11:40:06.169Z,25.61
2019-01-27T11:41:05.905Z,25.62
2019-01-27T11:42:06.126Z,25.59
2019-01-27T11:43:06.156Z,25.65
2019-01-27T11:44:05.869Z,25.62
2019-01-27T11:45:05.877Z,25.64
2019-01-27T11:46:05.856Z,25.61
2019-01-27T11:47:05.893Z,25.53
2019-01-27T11:48:05.896Z,25.64
2019-01-27T11:49:06.107Z,25.67
2019-01-27T11:50:06.068Z,25.61
2019-01-27T11:51:06.081Z,25.64
2019-01-27T11:52:06.078Z,25.64
2019-01-27T11:53:05.850Z,25.61
2019-01-27T11:54:05.845Z,25.64
2019-01-27T11:55:05.832Z,25.61
2019-01-27T11:56:06.225Z,25.62
2019-01-27T11:57:06.201Z,25.67
2019-01-27T11:58:05.778Z,25.59
2019-01-27T11:59:05.809Z,25.67
2019-01-27T12:00:05.808Z,25.62
2019-01-27T12:01:06.166Z,25.67
2019-01-27T12:02:05.745Z,25.69
2019-01-27T12:03:05.780Z,25.65
2019-01-27T12:04:06.047Z,25.65
2019-01-27T12:05:05.732Z,25.62
2019-01-27T12:06:05.966Z,25.57
2019-01-27T12:07:05.726Z,25.61
2019-01-27T12:08:05.978Z,25.68
2019-01-27T12:09:05.957Z,25.67
2019-01-27T12:10:05.958Z,25.69
2019-01-27T12:11:05.693Z,25.62
2019-01-27T12:12:05.964Z,25.62
2019-01-27T12:13:05.705Z,25.57
2019-01-27T12:14:05.705Z,25.59
2019-01-27T12:15:05.925Z,25.71
2019-01-27T12:16:05.650Z,25.67
2019-01-27T12:17:05.917Z,25.59
2019-01-27T12:18:05.634Z,25.64
2019-01-27T12:19:05.865Z,25.69
2019-01-27T12:20:05.655Z,25.65
2019-01-27T12:21:05.874Z,25.65
2019-01-27T12:22:05.648Z,25.65
2019-01-27T12:23:05.869Z,25.68
2019-01-27T12:24:05.894Z,25.61
2019-01-27T12:25:05.842Z,25.61
2019-01-27T12:26:05.863Z,25.59
2019-01-27T12:27:06.553Z,25.59
2019-01-27T12:28:05.580Z,25.65
2019-01-27T12:29:05.576Z,25.61
2019-01-27T12:30:05.828Z,25.64
2019-01-27T12:31:05.797Z,25.59
2019-01-27T12:32:05.558Z,25.59
2019-01-27T12:33:05.846Z,25.64
2019-01-27T12:34:05.535Z,25.65
2019-01-27T12:35:05.556Z,25.56
2019-01-27T12:36:05.775Z,25.61
2019-01-27T12:37:05.515Z,25.64
2019-01-27T12:38:05.498Z,25.61
2019-01-27T12:39:05.758Z,25.57
2019-01-27T12:40:05.503Z,25.59
2019-01-27T12:41:05.480Z,25.59
2019-01-27T12:42:05.476Z,25.59
2019-01-27T12:43:05.479Z,25.62
2019-01-27T12:44:05.466Z,25.57
2019-01-27T12:45:05.485Z,25.62
2019-01-27T12:46:05.440Z,25.61
2019-01-27T12:47:05.466Z,25.61
2019-01-27T12:48:05.433Z,25.61
2019-01-27T12:49:05.423Z,25.57
2019-01-27T12:50:05.460Z,25.64
2019-01-27T12:51:05.429Z,25.64
2019-01-27T12:52:05.414Z,25.64